Time;durP1;ratioP1;P1;durP2;ratioP2;P2;SDS_P1;SDS_P2;PMS_P1;PMS_P2;Temp;Humidity;BMP_temperature;BMP_pressure;BME280_temperature;BME280_humidity;BME280_pressure;Samples;Min_cycle;Max_cycle;Signal;HPM_P1;HPM_P2
2022/05/10 00:01:41;;;;;;;7.85;4.80;;;15.40;99.90;;;;;;4741557;30;20047;-63
2022/05/10 00:04:10;;;;;;;6.65;4.50;;;15.50;99.90;;;;;;4752982;30;20040;-63
2022/05/10 00:06:46;;;;;;;7.70;4.50;;;15.50;99.90;;;;;;4754500;30;20122;-63
2022/05/10 00:09:16;;;;;;;11.45;5.50;;;15.50;99.90;;;;;;4737104;30;20055;-63
2022/05/10 00:11:43;;;;;;;8.45;4.63;;;15.40;99.90;;;;;;4743407;30;20048;-62
2022/05/10 00:14:10;;;;;;;9.45;4.60;;;15.60;99.90;;;;;;4757659;30;20059;-63
2022/05/10 00:16:42;;;;;;;7.47;4.32;;;15.60;99.90;;;;;;4753442;30;20051;-63
2022/05/10 00:19:15;;;;;;;7.53;4.45;;;15.70;99.90;;;;;;4752360;30;20397;-63
2022/05/10 00:21:42;;;;;;;;;;;15.70;99.90;;;;;;4759527;30;20059;-63
2022/05/10 00:24:10;;;;;;;8.00;5.18;;;15.50;99.90;;;;;;4754223;30;19941;-63
2022/05/10 00:26:37;;;;;;;8.02;4.25;;;15.60;99.90;;;;;;4740846;30;20048;-63
2022/05/10 00:29:04;;;;;;;6.93;4.25;;;15.50;99.90;;;;;;4743285;30;20412;-63
2022/05/10 00:31:32;;;;;;;7.25;3.90;;;15.50;99.90;;;;;;4753361;30;20056;-63
2022/05/10 00:34:00;;;;;;;6.63;4.40;;;15.40;99.90;;;;;;4756194;30;20052;-63
2022/05/10 00:36:28;;;;;;;7.07;4.72;;;15.30;99.90;;;;;;4755795;30;20137;-63
2022/05/10 00:38:55;;;;;;;8.82;4.05;;;15.30;99.90;;;;;;4757567;30;20058;-63
2022/05/10 00:41:54;;;;;;;6.18;4.07;;;15.30;99.90;;;;;;4758239;30;20060;-63
2022/05/10 00:44:31;;;;;;;6.68;3.92;;;15.40;99.90;;;;;;4756893;30;20811;-63
2022/05/10 00:47:30;;;;;;;8.02;5.18;;;15.50;99.90;;;;;;4752778;30;20059;-63
2022/05/10 00:49:59;;;;;;;7.22;4.32;;;15.50;99.90;;;;;;4747707;30;20068;-64
2022/05/10 00:52:48;;;;;;;7.13;3.90;;;15.60;99.90;;;;;;4753326;30;20058;-63
2022/05/10 00:55:27;;;;;;;7.68;4.07;;;15.60;99.90;;;;;;4754666;30;20052;-63
2022/05/10 00:58:14;;;;;;;5.53;3.72;;;15.50;99.90;;;;;;4755861;30;20050;-62
2022/05/10 01:00:42;;;;;;;6.43;4.38;;;15.50;99.90;;;;;;4722072;30;20191;-63
2022/05/10 01:03:30;;;;;;;5.80;3.92;;;15.60;99.90;;;;;;4738955;30;20799;-63
2022/05/10 01:06:09;;;;;;;7.80;4.32;;;15.60;99.90;;;;;;4744228;30;20067;-63
2022/05/10 01:08:36;;;;;;;5.88;3.78;;;15.60;99.90;;;;;;4755534;30;20508;-63
2022/05/10 01:11:22;;;;;;;6.15;4.40;;;15.50;99.90;;;;;;4757803;30;20080;-63
2022/05/10 01:13:57;;;;;;;6.32;4.40;;;15.40;99.90;;;;;;4755799;30;20396;-63
2022/05/10 01:16:25;;;;;;;6.70;4.32;;;15.50;99.90;;;;;;4753397;30;22661;-63
2022/05/10 01:18:53;;;;;;;6.93;4.60;;;15.50;99.90;;;;;;4756031;30;20047;-63
2022/05/10 01:21:55;;;;;;;7.10;4.00;;;15.50;99.90;;;;;;4744339;30;20044;-63
2022/05/10 01:24:51;;;;;;;5.90;3.92;;;15.40;99.90;;;;;;4753379;30;20048;-63
2022/05/10 01:27:30;;;;;;;6.75;3.58;;;15.40;99.90;;;;;;4722760;30;20054;-63
2022/05/10 01:30:04;;;;;;;6.43;3.92;;;15.40;99.90;;;;;;4738192;30;20056;-63
2022/05/10 01:35:26;;;;;;;6.05;4.13;;;15.50;99.90;;;;;;4753890;30;20058;-63
2022/05/10 01:37:59;;;;;;;8.52;3.88;;;15.50;99.90;;;;;;4758548;30;20044;-63
2022/05/10 01:40:37;;;;;;;6.35;4.25;;;15.40;99.90;;;;;;4740541;30;20044;-63
2022/05/10 01:43:37;;;;;;;6.88;3.80;;;15.30;99.90;;;;;;4754920;30;20603;-63
2022/05/10 01:46:12;;;;;;;5.95;4.43;;;15.30;99.90;;;;;;4749384;30;20067;-63
2022/05/10 01:48:42;;;;;;;5.43;3.65;;;15.30;99.90;;;;;;4752220;30;20054;-63
2022/05/10 01:51:19;;;;;;;5.43;4.25;;;15.30;99.90;;;;;;4756070;30;20048;-64
2022/05/10 01:53:47;;;;;;;8.13;4.68;;;15.30;99.90;;;;;;4758215;30;20496;-63
2022/05/10 01:56:19;;;;;;;6.63;4.53;;;15.30;99.90;;;;;;4755780;30;20135;-63
2022/05/10 01:58:47;;;;;;;6.38;4.00;;;15.30;99.90;;;;;;4752346;30;20051;-63
2022/05/10 02:01:17;;;;;;;5.55;4.00;;;15.30;99.90;;;;;;4756087;30;20048;-63
2022/05/10 02:04:08;;;;;;;6.75;4.18;;;15.30;99.90;;;;;;4752061;30;20069;-63
2022/05/10 02:06:51;;;;;;;6.63;4.30;;;15.20;99.90;;;;;;4754957;30;20043;-63
2022/05/10 02:09:35;;;;;;;6.88;3.90;;;15.20;99.90;;;;;;4750772;30;20174;-63
2022/05/10 02:12:17;;;;;;;6.78;3.60;;;15.20;99.90;;;;;;4755131;30;20054;-63
2022/05/10 02:15:07;;;;;;;4.65;3.75;;;15.30;99.90;;;;;;4753514;30;20064;-63
2022/05/10 02:17:48;;;;;;;6.72;4.47;;;15.30;99.90;;;;;;4752986;30;20048;-63
2022/05/10 02:20:23;;;;;;;8.73;4.50;;;15.30;99.90;;;;;;4754533;30;20048;-64
2022/05/10 02:23:19;;;;;;;5.25;3.60;;;15.30;99.90;;;;;;4740431;30;20048;-63
2022/05/10 02:25:54;;;;;;;8.30;4.15;;;15.30;99.90;;;;;;4721429;30;20063;-63
2022/05/10 02:28:44;;;;;;;7.70;4.10;;;15.20;99.90;;;;;;4752189;30;20059;-63
2022/05/10 02:31:19;;;;;;;5.20;3.45;;;15.20;99.90;;;;;;4743296;30;20815;-63
2022/05/10 02:33:48;;;;;;;6.13;3.95;;;15.10;99.90;;;;;;4747862;30;20060;-63
2022/05/10 02:36:17;;;;;;;6.35;4.10;;;15.10;99.90;;;;;;4736838;30;20054;-63
2022/05/10 02:38:45;;;;;;;7.57;4.05;;;15.10;99.90;;;;;;4755350;30;20408;-63
2022/05/10 02:41:20;;;;;;;6.45;3.92;;;15.20;99.90;;;;;;4752736;30;20056;-63
2022/05/10 02:43:54;;;;;;;6.78;4.40;;;15.10;99.90;;;;;;4754010;30;20051;-63
2022/05/10 02:46:22;;;;;;;8.18;4.32;;;15.10;99.90;;;;;;4756224;30;20051;-63
2022/05/10 02:48:50;;;;;;;6.57;3.92;;;15.00;99.90;;;;;;4758217;30;20043;-63
2022/05/10 02:51:18;;;;;;;6.25;4.07;;;15.00;99.90;;;;;;4752855;30;20044;-63
2022/05/10 02:53:46;;;;;;;10.27;4.97;;;15.00;99.90;;;;;;4744702;30;20513;-63
2022/05/10 02:56:17;;;;;;;5.07;3.95;;;14.90;99.90;;;;;;4738751;30;20055;-63
2022/05/10 02:58:57;;;;;;;4.78;3.92;;;14.90;99.90;;;;;;4750994;30;20079;-63
2022/05/10 03:01:27;;;;;;;6.05;3.60;;;15.00;99.90;;;;;;4750519;30;20044;-63
2022/05/10 03:03:54;;;;;;;6.93;4.00;;;14.90;99.90;;;;;;4750947;30;20579;-63
2022/05/10 03:06:25;;;;;;;5.95;4.05;;;14.90;99.90;;;;;;4754501;30;20048;-63
2022/05/10 03:08:55;;;;;;;6.72;4.57;;;15.00;99.90;;;;;;4755888;30;20047;-63
2022/05/10 03:11:22;;;;;;;7.85;4.47;;;14.90;99.90;;;;;;4754550;30;20063;-63
2022/05/10 03:13:50;;;;;;;10.23;4.75;;;15.00;99.90;;;;;;4746463;30;20063;-63
2022/05/10 03:16:21;;;;;;;10.32;4.00;;;14.90;99.90;;;;;;4751692;30;20194;-63
2022/05/10 03:18:49;;;;;;;6.30;3.80;;;15.00;99.90;;;;;;4738299;30;20055;-63
2022/05/10 03:21:16;;;;;;;6.60;3.65;;;14.90;99.90;;;;;;4758946;30;20051;-63
2022/05/10 03:23:44;;;;;;;6.43;4.00;;;15.00;99.90;;;;;;4740390;30;20044;-63
2022/05/10 03:26:15;;;;;;;6.97;4.03;;;15.00;99.90;;;;;;4736324;30;20056;-63
2022/05/10 03:28:42;;;;;;;5.85;4.20;;;15.00;99.90;;;;;;4751234;30;20782;-63
2022/05/10 03:31:11;;;;;;;6.28;4.03;;;14.90;99.90;;;;;;4753736;30;20052;-63
2022/05/10 03:33:38;;;;;;;6.55;4.45;;;14.90;99.90;;;;;;4754115;30;20048;-63
2022/05/10 03:36:06;;;;;;;7.68;4.60;;;14.70;99.90;;;;;;4738773;30;20062;-63
2022/05/10 03:38:33;;;;;;;7.13;4.53;;;14.70;99.90;;;;;;4738421;30;20051;-63
2022/05/10 03:41:01;;;;;;;8.25;4.38;;;14.60;99.90;;;;;;4745574;30;20086;-63
2022/05/10 03:43:28;;;;;;;7.78;4.50;;;14.80;99.90;;;;;;4755811;30;20111;-63
2022/05/10 03:45:55;;;;;;;5.97;4.32;;;14.80;99.90;;;;;;4743262;30;20946;-63
2022/05/10 03:48:22;;;;;;;6.07;4.03;;;14.90;99.90;;;;;;4744674;30;20059;-63
2022/05/10 03:50:49;;;;;;;6.15;4.15;;;14.90;99.90;;;;;;4757339;30;20055;-63
2022/05/10 03:53:16;;;;;;;6.50;4.22;;;15.00;99.90;;;;;;4754313;30;20052;-63
2022/05/10 03:55:43;;;;;;;5.97;4.15;;;14.90;99.90;;;;;;4744066;30;20500;-63
2022/05/10 03:58:13;;;;;;;6.93;4.35;;;15.00;99.90;;;;;;4755356;30;20054;-63
2022/05/10 04:00:40;;;;;;;8.32;4.40;;;15.00;99.90;;;;;;4754416;30;20054;-63
2022/05/10 04:03:08;;;;;;;7.18;4.35;;;15.00;99.90;;;;;;4755430;30;20048;-63
2022/05/10 04:05:35;;;;;;;6.30;4.05;;;15.00;99.90;;;;;;4757307;30;20044;-63
2022/05/10 04:08:04;;;;;;;7.20;4.00;;;15.00;99.90;;;;;;4752823;30;20079;-64
2022/05/10 04:10:31;;;;;;;6.72;4.30;;;15.00;99.90;;;;;;4755315;30;20052;-64
2022/05/10 04:12:58;;;;;;;7.35;4.68;;;15.10;99.90;;;;;;4755960;30;20087;-63
2022/05/10 04:15:25;;;;;;;5.78;4.22;;;15.10;99.90;;;;;;4754263;30;20408;-63
2022/05/10 04:17:52;;;;;;;7.63;4.35;;;15.10;99.90;;;;;;4757583;30;20059;-64
2022/05/10 04:20:19;;;;;;;9.68;5.00;;;15.20;99.90;;;;;;4758092;30;20472;-63
2022/05/10 04:22:47;;;;;;;5.50;3.90;;;15.10;99.90;;;;;;4759276;30;20043;-63
2022/05/10 04:25:23;;;;;;;6.70;4.25;;;15.10;99.90;;;;;;4758880;30;20051;-63
2022/05/10 04:27:52;;;;;;;5.47;3.90;;;15.10;99.90;;;;;;4737994;30;20055;-63
2022/05/10 04:30:19;;;;;;;7.57;4.97;;;15.20;99.90;;;;;;4754589;30;20056;-64
2022/05/10 04:32:46;;;;;;;6.10;4.22;;;15.20;99.90;;;;;;4738469;30;20048;-63
2022/05/10 04:35:14;;;;;;;8.23;4.50;;;15.30;99.90;;;;;;4752293;30;20063;-64
2022/05/10 04:37:41;;;;;;;7.93;4.35;;;15.30;99.90;;;;;;4754449;30;20130;-64
2022/05/10 04:42:54;;;;;;;6.65;4.25;;;15.40;99.90;;;;;;4757617;30;20044;-64
2022/05/10 04:45:22;;;;;;;8.43;3.67;;;15.40;99.90;;;;;;4753670;30;20052;-63
2022/05/10 04:47:49;;;;;;;8.18;5.10;;;15.50;99.90;;;;;;4754159;30;22724;-63
2022/05/10 04:50:16;;;;;;;6.85;4.18;;;15.40;99.90;;;;;;4756512;30;20047;-63
2022/05/10 04:52:43;;;;;;;6.18;4.28;;;15.50;99.90;;;;;;4757649;30;20039;-64
2022/05/10 04:55:10;;;;;;;5.55;3.80;;;15.60;99.90;;;;;;4758462;30;20080;-63
2022/05/10 04:57:39;;;;;;;6.80;4.00;;;15.70;99.90;;;;;;4754884;30;20054;-63
2022/05/10 05:00:11;;;;;;;6.53;4.10;;;15.90;99.90;;;;;;4753511;30;20047;-64
2022/05/10 05:02:38;;;;;;;8.15;3.97;;;15.90;99.90;;;;;;4707804;30;20066;-63
2022/05/10 05:05:07;;;;;;;4.97;3.50;;;15.90;99.90;;;;;;4710239;30;20096;-64
2022/05/10 05:07:35;;;;;;;8.07;3.90;;;15.90;99.90;;;;;;4726686;30;20140;-63
2022/05/10 05:10:06;;;;;;;7.13;4.03;;;16.00;99.90;;;;;;4702583;30;20603;-63
2022/05/10 05:12:34;;;;;;;7.80;4.25;;;16.10;99.90;;;;;;4716877;30;22700;-64
2022/05/10 05:15:04;;;;;;;5.82;3.45;;;16.10;99.90;;;;;;4717298;30;20112;-64
2022/05/10 05:17:32;;;;;;;5.00;3.50;;;16.00;99.90;;;;;;4717671;30;20091;-64
2022/05/10 05:19:59;;;;;;;4.38;3.33;;;16.00;99.90;;;;;;4728630;30;20055;-64
2022/05/10 05:22:27;;;;;;;8.50;3.80;;;16.10;99.90;;;;;;4725426;30;20051;-63
2022/05/10 05:24:54;;;;;;;6.18;3.50;;;16.00;99.90;;;;;;4723807;30;20744;-63
2022/05/10 05:27:21;;;;;;;7.22;3.83;;;16.10;99.90;;;;;;4715337;30;20515;-63
2022/05/10 05:29:48;;;;;;;7.43;3.85;;;16.00;99.90;;;;;;4700224;30;20205;-64
2022/05/10 05:32:33;;;;;;;7.32;4.03;;;16.00;99.90;;;;;;4720893;30;20067;-63
2022/05/10 05:35:00;;;;;;;5.05;3.90;;;16.20;99.90;;;;;;4726127;30;20058;-64
2022/05/10 05:37:33;;;;;;;7.47;3.38;;;16.10;99.90;;;;;;4725224;30;20064;-63
2022/05/10 05:40:03;;;;;;;6.00;4.18;;;16.10;99.90;;;;;;4723151;30;20048;-63
2022/05/10 05:42:30;;;;;;;6.47;3.72;;;16.10;99.90;;;;;;4699741;30;20089;-63
2022/05/10 05:44:58;;;;;;;7.95;3.15;;;16.10;99.90;;;;;;4723380;30;20816;-63
2022/05/10 05:47:26;;;;;;;6.95;3.70;;;16.20;99.90;;;;;;4707838;30;20063;-63
2022/05/10 05:49:54;;;;;;;8.70;3.17;;;16.30;98.70;;;;;;4722165;30;20051;-63
2022/05/10 05:52:22;;;;;;;7.00;3.75;;;16.30;99.00;;;;;;4726408;30;20062;-63
2022/05/10 05:54:50;;;;;;;5.18;3.53;;;16.30;98.70;;;;;;4727248;29;20087;-64
2022/05/10 05:57:18;;;;;;;9.70;4.47;;;16.40;98.50;;;;;;4725704;30;22676;-63
2022/05/10 05:59:46;;;;;;;5.13;3.15;;;16.50;98.40;;;;;;4707044;30;20259;-64
2022/05/10 06:02:19;;;;;;;5.20;3.25;;;16.60;97.40;;;;;;4693136;30;20240;-64
2022/05/10 06:04:46;;;;;;;7.22;3.25;;;16.80;97.00;;;;;;4722869;30;20055;-64
2022/05/10 06:07:16;;;;;;;6.88;3.47;;;17.00;96.90;;;;;;4720456;30;21391;-64
2022/05/10 06:09:45;;;;;;;9.98;3.78;;;17.20;95.70;;;;;;4719725;30;20063;-64
2022/05/10 06:12:14;;;;;;;5.20;3.05;;;17.40;94.90;;;;;;4718223;30;20071;-64
2022/05/10 06:14:42;;;;;;;6.30;3.03;;;17.40;93.70;;;;;;4727993;30;20059;-64
2022/05/10 06:17:11;;;;;;;6.82;3.33;;;17.50;93.30;;;;;;4707835;30;20186;-64
2022/05/10 06:19:39;;;;;;;8.25;3.38;;;17.80;93.50;;;;;;4723398;30;20051;-64
2022/05/10 06:22:08;;;;;;;6.90;3.83;;;18.00;91.90;;;;;;4725731;30;20044;-64
2022/05/10 06:24:36;;;;;;;8.00;2.88;;;18.00;91.20;;;;;;4724491;30;20082;-63
2022/05/10 06:27:06;;;;;;;5.20;3.38;;;18.20;91.20;;;;;;4722069;30;20051;-63
2022/05/10 06:29:36;;;;;;;7.15;3.08;;;18.30;90.20;;;;;;4725609;30;20051;-64
2022/05/10 06:32:03;;;;;;;4.57;3.17;;;18.50;89.80;;;;;;4722848;30;20060;-63
2022/05/10 06:34:31;;;;;;;6.60;2.78;;;18.50;87.50;;;;;;4706894;30;20086;-63
2022/05/10 06:36:58;;;;;;;7.32;3.17;;;18.50;86.80;;;;;;4724333;30;20051;-64
2022/05/10 06:39:26;;;;;;;5.90;3.03;;;18.90;90.10;;;;;;4722385;30;20165;-64
2022/05/10 06:41:53;;;;;;;6.05;3.42;;;19.00;85.30;;;;;;4715022;30;20055;-64
2022/05/10 06:44:20;;;;;;;6.30;2.92;;;19.20;84.80;;;;;;4723104;30;20047;-64
2022/05/10 06:46:47;;;;;;;5.60;2.72;;;19.00;83.00;;;;;;4722405;30;22377;-64
2022/05/10 06:49:14;;;;;;;5.60;2.58;;;18.90;83.50;;;;;;4726174;29;20101;-64
2022/05/10 06:51:41;;;;;;;4.85;3.00;;;18.70;81.70;;;;;;4719044;30;20055;-65
2022/05/10 06:54:09;;;;;;;7.13;2.88;;;18.90;83.90;;;;;;4718406;30;20063;-64
2022/05/10 06:56:36;;;;;;;6.35;2.55;;;19.20;81.80;;;;;;4720513;30;20055;-64
2022/05/10 06:59:03;;;;;;;3.90;2.30;;;19.20;80.40;;;;;;4721790;30;20059;-65
2022/05/10 07:01:30;;;;;;;4.10;2.50;;;19.60;80.90;;;;;;4721168;30;20060;-65
2022/05/10 07:03:59;;;;;;;5.30;2.67;;;19.80;81.70;;;;;;4726686;30;20053;-64
2022/05/10 07:06:27;;;;;;;2.67;1.85;;;19.70;79.70;;;;;;4721103;30;20059;-64
2022/05/10 07:08:54;;;;;;;3.63;2.38;;;19.40;80.60;;;;;;4725682;30;22590;-64
2022/05/10 07:11:21;;;;;;;4.45;2.25;;;19.20;81.30;;;;;;4722861;30;20055;-64
2022/05/10 07:13:48;;;;;;;5.70;2.25;;;19.10;78.60;;;;;;4723436;30;20068;-64
2022/05/10 07:16:15;;;;;;;7.18;2.10;;;19.30;77.50;;;;;;4707303;30;21122;-64
2022/05/10 07:18:43;;;;;;;2.53;1.60;;;19.60;75.80;;;;;;4709077;30;20057;-64
2022/05/10 07:21:10;;;;;;;2.88;2.10;;;19.70;75.30;;;;;;4711201;30;20058;-65
2022/05/10 07:23:38;;;;;;;6.43;3.00;;;19.90;77.00;;;;;;4697092;30;20083;-64
2022/05/10 07:26:05;;;;;;;4.65;2.45;;;20.10;77.00;;;;;;4680325;30;20856;-65
2022/05/10 07:28:33;;;;;;;4.78;1.92;;;20.20;76.60;;;;;;4697166;30;21450;-64
2022/05/10 07:31:00;;;;;;;5.00;2.47;;;20.30;74.10;;;;;;4706229;30;20056;-64
2022/05/10 07:33:28;;;;;;;5.88;2.78;;;20.40;74.80;;;;;;4706426;30;20136;-64
2022/05/10 07:38:43;;;;;;;4.55;2.17;;;20.60;75.20;;;;;;4715674;30;20067;-64
2022/05/10 07:41:13;;;;;;;4.05;2.10;;;20.60;72.90;;;;;;4701162;30;20048;-64
2022/05/10 07:43:40;;;;;;;3.42;2.22;;;20.50;70.80;;;;;;4701219;30;20840;-65
2022/05/10 07:46:08;;;;;;;4.55;2.08;;;20.60;71.60;;;;;;4718915;30;20064;-64
2022/05/10 07:48:35;;;;;;;4.20;2.35;;;20.70;70.20;;;;;;4699386;30;20087;-64
2022/05/10 07:51:03;;;;;;;3.47;1.88;;;20.60;71.90;;;;;;4706153;30;20056;-64
2022/05/10 07:53:36;;;;;;;4.03;1.73;;;20.60;73.40;;;;;;4702602;30;20121;-64
2022/05/10 07:56:05;;;;;;;3.28;2.25;;;20.80;71.20;;;;;;4709988;30;20724;-64
2022/05/10 07:58:53;;;;;;;5.38;1.70;;;20.80;70.40;;;;;;4708160;30;20055;-64
2022/05/10 08:01:20;;;;;;;4.15;1.75;;;20.80;68.30;;;;;;4707616;30;22464;-65
2022/05/10 08:03:47;;;;;;;4.82;2.00;;;21.00;69.00;;;;;;4712598;30;20072;-65
2022/05/10 08:06:16;;;;;;;1.80;1.58;;;21.10;68.20;;;;;;4711759;30;20840;-64
2022/05/10 08:08:44;;;;;;;2.85;1.63;;;21.20;66.00;;;;;;4696376;30;21521;-64
2022/05/10 08:11:11;;;;;;;4.35;1.80;;;21.30;68.10;;;;;;4704046;30;20063;-64
2022/05/10 08:13:39;;;;;;;3.78;1.98;;;21.30;66.80;;;;;;4711841;30;20075;-64
2022/05/10 08:16:10;;;;;;;2.45;1.88;;;21.40;68.00;;;;;;4725805;30;20102;-65
2022/05/10 08:18:40;;;;;;;2.90;1.33;;;21.40;68.90;;;;;;4719142;30;20067;-65
2022/05/10 08:21:08;;;;;;;3.50;2.03;;;21.50;67.70;;;;;;4723533;30;20055;-65
2022/05/10 08:23:36;;;;;;;2.78;1.52;;;21.50;67.20;;;;;;4725475;30;20055;-64
2022/05/10 08:26:05;;;;;;;3.03;1.67;;;21.60;64.20;;;;;;4724526;30;20233;-65
2022/05/10 08:28:34;;;;;;;2.75;1.73;;;21.50;63.80;;;;;;4728189;30;20063;-64
2022/05/10 08:31:04;;;;;;;12.40;3.03;;;21.50;64.10;;;;;;4694010;30;20137;-64
2022/05/10 08:33:35;;;;;;;4.90;1.83;;;21.70;65.40;;;;;;4719987;30;20063;-65
2022/05/10 08:36:03;;;;;;;8.05;2.20;;;21.80;63.80;;;;;;4724722;30;22895;-63
2022/05/10 08:38:31;;;;;;;4.38;1.98;;;21.70;63.40;;;;;;4707781;30;20051;-64
2022/05/10 08:41:10;;;;;;;3.78;1.95;;;21.90;65.10;;;;;;4719942;30;20047;-64
2022/05/10 08:43:47;;;;;;;3.72;1.52;;;21.80;64.00;;;;;;4720546;30;20047;-64
2022/05/10 08:46:28;;;;;;;3.40;2.25;;;22.00;64.30;;;;;;4719002;30;20052;-63
2022/05/10 08:49:01;;;;;;;4.00;1.37;;;22.00;63.50;;;;;;4691523;30;20167;-63
2022/05/10 08:51:31;;;;;;;2.17;1.35;;;22.00;64.30;;;;;;4719961;30;20251;-64
2022/05/10 08:53:58;;;;;;;3.70;1.67;;;22.10;64.30;;;;;;4717454;30;20137;-65
2022/05/10 08:56:30;;;;;;;2.47;1.52;;;22.00;61.40;;;;;;4702349;30;20056;-65
2022/05/10 08:59:15;;;;;;;2.53;1.45;;;22.10;60.10;;;;;;4727959;30;20516;-64
2022/05/10 09:02:05;;;;;;;3.70;1.58;;;21.90;59.10;;;;;;4715318;30;20064;-65
2022/05/10 09:05:20;;;;;;;3.22;1.60;;;21.80;61.10;;;;;;4722927;30;21078;-64
2022/05/10 09:08:03;;;;;;;2.78;1.63;;;21.90;62.60;;;;;;4698943;30;20072;-64
2022/05/10 09:10:49;;;;;;;3.50;1.63;;;22.10;62.80;;;;;;4717235;30;20592;-65
2022/05/10 09:13:18;;;;;;;2.50;1.40;;;22.10;61.10;;;;;;4725387;30;20201;-64
2022/05/10 09:15:52;;;;;;;3.20;1.60;;;22.20;60.70;;;;;;4724275;30;20048;-65
2022/05/10 09:18:25;;;;;;;2.88;1.20;;;22.10;57.80;;;;;;4718855;30;20048;-65
2022/05/10 09:21:14;;;;;;;2.80;1.33;;;22.10;59.10;;;;;;4721297;30;20058;-65
2022/05/10 09:24:09;;;;;;;3.83;1.42;;;22.20;59.60;;;;;;4697548;30;20047;-64
2022/05/10 09:26:38;;;;;;;3.20;1.52;;;22.30;60.10;;;;;;4698558;30;20058;-65
2022/05/10 09:29:22;;;;;;;2.72;1.55;;;22.30;57.30;;;;;;4723110;30;22396;-65
2022/05/10 09:34:58;;;;;;;3.15;1.88;;;22.40;62.80;;;;;;4690690;30;20194;-65
2022/05/10 09:37:35;;;;;;;4.30;1.70;;;22.50;63.40;;;;;;4722473;30;20055;-64
2022/05/10 09:40:09;;;;;;;4.00;1.60;;;22.50;62.70;;;;;;4725651;30;20067;-65
2022/05/10 09:42:42;;;;;;;3.05;1.05;;;22.50;61.40;;;;;;4723357;30;20057;-65
2022/05/10 09:45:24;;;;;;;3.47;1.10;;;22.50;59.10;;;;;;4717362;30;20063;-65
2022/05/10 09:48:02;;;;;;;3.80;1.27;;;22.30;55.90;;;;;;4702165;30;20047;-65
2022/05/10 09:50:36;;;;;;;2.67;1.30;;;22.30;55.20;;;;;;4721521;30;20179;-64
2022/05/10 09:53:28;;;;;;;1.70;1.00;;;22.30;56.00;;;;;;4719991;30;22550;-65
2022/05/10 09:56:08;;;;;;;2.78;1.15;;;22.20;54.50;;;;;;4706120;30;20718;-65
2022/05/10 09:58:41;;;;;;;2.10;1.40;;;22.20;53.80;;;;;;4711712;30;20051;-64
2022/05/10 10:01:11;;;;;;;3.47;1.70;;;22.40;58.90;;;;;;4721621;30;20051;-63
2022/05/10 10:03:45;;;;;;;3.47;1.35;;;22.60;59.10;;;;;;4712810;30;22661;-64
2022/05/10 10:06:22;;;;;;;4.00;1.60;;;22.60;59.70;;;;;;4724430;30;20060;-65
2022/05/10 10:08:54;;;;;;;7.18;2.15;;;22.50;57.90;;;;;;4713717;30;20056;-65
2022/05/10 10:11:21;;;;;;;3.75;1.77;;;22.40;59.50;;;;;;4718668;30;20055;-64
2022/05/10 10:14:06;;;;;;;6.13;2.05;;;22.50;59.20;;;;;;4709861;30;20145;-64
2022/05/10 10:16:45;;;;;;;3.92;2.15;;;22.50;61.10;;;;;;4721623;30;20047;-65
2022/05/10 10:19:26;;;;;;;3.00;1.85;;;22.70;58.80;;;;;;4724486;30;20800;-64
2022/05/10 10:22:02;;;;;;;2.00;1.50;;;22.50;57.60;;;;;;4725512;30;20097;-64
2022/05/10 10:24:47;;;;;;;3.33;1.67;;;22.60;59.30;;;;;;4721075;30;20062;-64
2022/05/10 10:27:24;;;;;;;3.78;1.85;;;22.80;61.00;;;;;;4720157;30;20113;-64
2022/05/10 10:30:01;;;;;;;3.65;1.85;;;22.70;57.30;;;;;;4723646;30;20211;-64
2022/05/10 10:32:38;;;;;;;1.95;1.33;;;22.80;59.70;;;;;;4719971;30;20075;-64
2022/05/10 10:35:20;;;;;;;4.13;1.80;;;23.00;61.80;;;;;;4720076;30;20055;-64
2022/05/10 10:38:02;;;;;;;4.60;1.52;;;23.00;59.20;;;;;;4691723;30;20060;-65
2022/05/10 10:40:44;;;;;;;;;;;23.00;58.00;;;;;;4723689;30;20086;-64
2022/05/10 10:43:49;;;;;;;3.30;1.25;;;22.90;55.70;;;;;;4696477;30;20205;-65
2022/05/10 10:46:36;;;;;;;8.95;2.03;;;22.80;56.90;;;;;;4715167;30;21510;-64
2022/05/10 10:49:14;;;;;;;4.13;1.40;;;23.20;58.10;;;;;;4715514;30;20092;-63
2022/05/10 10:51:43;;;;;;;3.83;2.15;;;23.30;57.90;;;;;;4705228;30;20892;-63
2022/05/10 10:54:31;;;;;;;4.30;1.85;;;23.40;57.50;;;;;;4717643;30;20066;-64
2022/05/10 10:57:20;;;;;;;3.00;1.45;;;23.20;54.30;;;;;;4718026;30;20055;-64
2022/05/10 11:00:02;;;;;;;4.07;1.77;;;23.20;55.10;;;;;;4711677;30;20088;-64
2022/05/10 11:02:44;;;;;;;2.88;2.00;;;23.40;57.20;;;;;;4717092;30;20072;-64
2022/05/10 11:05:39;;;;;;;2.50;2.10;;;23.60;58.70;;;;;;4720270;30;20180;-63
2022/05/10 11:08:24;;;;;;;4.25;2.17;;;23.70;54.40;;;;;;4717968;30;20180;-64
2022/05/10 11:11:07;;;;;;;2.20;1.70;;;23.60;53.90;;;;;;4718105;30;20708;-64
2022/05/10 11:14:00;;;;;;;4.78;1.85;;;23.60;54.40;;;;;;4720181;30;20056;-64
2022/05/10 11:16:50;;;;;;;3.90;1.50;;;23.80;52.60;;;;;;4705122;30;20078;-64
2022/05/10 11:19:30;;;;;;;3.53;1.42;;;23.90;55.30;;;;;;4680657;30;20481;-64
2022/05/10 11:22:18;;;;;;;4.57;1.80;;;23.60;55.70;;;;;;4721105;30;20055;-64
2022/05/10 11:25:23;;;;;;;3.42;1.55;;;23.30;55.70;;;;;;4718679;30;20055;-64
2022/05/10 11:28:39;;;;;;;2.53;1.75;;;23.10;54.30;;;;;;4720042;30;20058;-64
2022/05/10 11:31:24;;;;;;;4.22;1.80;;;23.50;58.20;;;;;;4674003;30;22638;-64
2022/05/10 11:34:17;;;;;;;4.13;2.28;;;23.30;57.90;;;;;;4676260;30;20179;-65
2022/05/10 11:36:48;;;;;;;8.85;2.25;;;23.10;59.00;;;;;;4674529;30;20060;-63
2022/05/10 11:39:36;;;;;;;8.13;2.83;;;23.00;61.20;;;;;;4668671;30;20938;-64
2022/05/10 11:42:24;;;;;;;4.57;2.10;;;22.80;63.30;;;;;;4659874;30;20061;-64
2022/05/10 11:45:09;;;;;;;5.07;2.45;;;22.80;64.20;;;;;;4637990;30;20160;-64
2022/05/10 11:48:23;;;;;;;4.88;2.30;;;23.00;61.00;;;;;;4673726;30;20175;-64
2022/05/10 11:54:11;;;;;;;4.63;2.50;;;23.00;57.30;;;;;;4672627;30;20068;-63
2022/05/10 11:56:40;;;;;;;2.40;1.73;;;23.20;59.20;;;;;;4671987;30;20166;-63
2022/05/10 11:59:24;;;;;;;4.60;2.45;;;23.50;60.80;;;;;;4670525;30;20053;-64
2022/05/10 12:01:53;;;;;;;4.60;2.40;;;23.70;58.50;;;;;;4675906;30;20059;-63
2022/05/10 12:04:43;;;;;;;3.38;2.30;;;23.60;59.70;;;;;;4703349;30;20050;-64
2022/05/10 12:07:20;;;;;;;5.53;1.80;;;23.30;59.80;;;;;;4714106;30;20055;-64
2022/05/10 12:10:00;;;;;;;3.95;1.98;;;23.20;59.30;;;;;;4717307;30;20181;-64
2022/05/10 12:12:33;;;;;;;2.03;1.70;;;23.00;59.70;;;;;;4721697;30;20051;-64
2022/05/10 12:21:19;;;;;;;4.85;1.00;;;22.80;56.20;;;;;;4724498;30;20066;-64
2022/05/10 12:24:02;;;;;;;6.43;1.60;;;23.00;57.30;;;;;;4711349;30;20505;-64
2022/05/10 12:26:46;;;;;;;6.07;2.53;;;22.80;57.70;;;;;;4718651;30;20193;-64
2022/05/10 12:29:39;;;;;;;6.93;3.30;;;22.60;60.60;;;;;;4700230;30;20063;-64
2022/05/10 12:32:18;;;;;;;4.47;2.17;;;22.40;63.20;;;;;;4708294;30;20296;-64
2022/05/10 12:34:46;;;;;;;3.08;1.95;;;22.20;63.90;;;;;;4719711;30;20692;-63
2022/05/10 12:37:26;;;;;;;5.13;2.00;;;21.70;64.70;;;;;;4722449;30;22614;-63
2022/05/10 12:39:58;;;;;;;4.65;2.33;;;21.40;66.10;;;;;;4697179;30;20062;-64
2022/05/10 12:42:38;;;;;;;4.75;2.10;;;21.20;65.80;;;;;;4720468;30;20083;-64
2022/05/10 12:45:44;;;;;;;3.03;1.65;;;21.00;67.70;;;;;;4722479;30;20052;-64
2022/05/10 12:48:51;;;;;;;2.80;1.80;;;21.00;66.70;;;;;;4710651;30;22579;-63
2022/05/10 12:51:40;;;;;;;2.92;1.52;;;20.80;66.00;;;;;;4718661;30;22149;-63
2022/05/10 12:54:19;;;;;;;3.28;0.90;;;20.70;67.30;;;;;;4715405;30;20090;-65
2022/05/10 12:57:09;;;;;;;1.45;0.77;;;20.60;65.90;;;;;;4688211;30;20063;-64
2022/05/10 13:00:11;;;;;;;1.98;0.88;;;20.50;65.60;;;;;;4701277;30;23443;-63
2022/05/10 13:02:49;;;;;;;3.95;1.15;;;20.70;64.50;;;;;;4701086;30;20064;-64
2022/05/10 13:05:51;;;;;;;2.47;0.88;;;20.90;61.90;;;;;;4708879;30;20232;-63
2022/05/10 13:08:38;;;;;;;0.90;0.60;;;21.20;62.50;;;;;;4694125;30;20056;-63
2022/05/10 13:11:31;;;;;;;0.70;0.32;;;21.30;60.80;;;;;;4722528;30;20105;-64
2022/05/10 13:14:00;;;;;;;2.05;0.40;;;21.50;61.20;;;;;;4701633;30;20072;-64
2022/05/10 13:16:28;;;;;;;0.98;0.40;;;21.50;60.40;;;;;;4722973;30;20102;-64
2022/05/10 13:18:56;;;;;;;2.10;0.50;;;21.40;58.40;;;;;;4722889;30;20055;-67
2022/05/10 13:21:27;;;;;;;1.10;0.30;;;21.50;57.80;;;;;;4724511;30;20094;-64
2022/05/10 13:23:58;;;;;;;2.58;0.43;;;21.50;60.60;;;;;;4728570;30;20104;-65
2022/05/10 13:26:29;;;;;;;0.82;0.43;;;21.50;61.80;;;;;;4724147;30;20580;-64
2022/05/10 13:29:00;;;;;;;1.33;0.50;;;21.60;63.30;;;;;;4721878;30;20067;-65
2022/05/10 13:31:37;;;;;;;2.67;0.77;;;21.50;65.00;;;;;;4698252;30;20056;-64
2022/05/10 13:34:08;;;;;;;5.13;0.77;;;21.70;65.10;;;;;;4721467;30;20051;-65
2022/05/10 13:36:37;;;;;;;1.10;0.50;;;22.10;66.10;;;;;;4721611;30;20138;-65
2022/05/10 13:39:07;;;;;;;1.90;0.50;;;22.30;62.00;;;;;;4708534;30;20058;-65
2022/05/10 13:41:36;;;;;;;1.23;0.57;;;22.40;60.40;;;;;;4699708;30;20074;-64
2022/05/10 13:44:13;;;;;;;1.13;0.55;;;22.50;60.70;;;;;;4715846;30;20047;-64
2022/05/10 13:47:02;;;;;;;0.80;0.40;;;22.60;58.90;;;;;;4723136;29;20183;-64